Aviation Digital Data Service (ADDS)

Output produced by METARs form (2336 UTC 26 February 2020)
found at http://www.aviationweather.gov/metar/data/
 
EGPK 262320Z 23012KT 9999 FEW014 03/02 Q0998
EGPK 262250Z 27007KT 9999 FEW013 SCT023 03/01 Q0998
TAF EGPK 262301Z 2700/2724 26012KT 9999 FEW010 SCT025 
     TEMPO 2700/2722 27015G25KT 6000 SHRA SHRASN BKN010CB 
     PROB40 
     TEMPO 2700/2715 1200 SHSN BKN005 
     PROB40 
     TEMPO 2712/2715 28022G35KT 
     BECMG 2722/2724 20012KT 
     TEMPO 2722/2724 21015G25KT